sensor_id;sensor_type;location;lat;lon;timestamp;pressure;altitude;pressure_sealevel;temperature;humidity
11395;BME280;5753;54.402;10.220;2024-02-16T00:00:16;101308.31;;;11.48;99.39
11395;BME280;5753;54.402;10.220;2024-02-16T00:02:44;101303.09;;;11.49;99.43
11395;BME280;5753;54.402;10.220;2024-02-16T00:05:13;101301.34;;;11.50;99.30
11395;BME280;5753;54.402;10.220;2024-02-16T00:07:41;101299.63;;;11.50;99.22
11395;BME280;5753;54.402;10.220;2024-02-16T00:10:10;101303.03;;;11.51;99.02
11395;BME280;5753;54.402;10.220;2024-02-16T00:12:38;101291.00;;;11.50;99.01
11395;BME280;5753;54.402;10.220;2024-02-16T00:15:07;101291.91;;;11.49;98.55
11395;BME280;5753;54.402;10.220;2024-02-16T00:17:35;101292.03;;;11.46;98.86
11395;BME280;5753;54.402;10.220;2024-02-16T00:20:05;101289.53;;;11.43;98.45
11395;BME280;5753;54.402;10.220;2024-02-16T00:22:34;101274.09;;;11.41;98.98
11395;BME280;5753;54.402;10.220;2024-02-16T00:25:02;101274.44;;;11.32;98.77
11395;BME280;5753;54.402;10.220;2024-02-16T00:27:29;101275.72;;;11.20;98.86
11395;BME280;5753;54.402;10.220;2024-02-16T00:29:57;101276.84;;;11.13;98.70
11395;BME280;5753;54.402;10.220;2024-02-16T00:32:23;101271.13;;;11.04;98.63
11395;BME280;5753;54.402;10.220;2024-02-16T00:34:55;101275.56;;;11.00;99.16
11395;BME280;5753;54.402;10.220;2024-02-16T00:37:21;101274.88;;;10.95;99.31
11395;BME280;5753;54.402;10.220;2024-02-16T00:39:49;101272.53;;;10.89;99.50
11395;BME280;5753;54.402;10.220;2024-02-16T00:42:16;101258.94;;;10.84;99.67
11395;BME280;5753;54.402;10.220;2024-02-16T00:44:43;101255.75;;;10.76;99.54
11395;BME280;5753;54.402;10.220;2024-02-16T00:47:10;101258.47;;;10.73;99.83
11395;BME280;5753;54.402;10.220;2024-02-16T00:49:37;101251.88;;;10.64;99.85
11395;BME280;5753;54.402;10.220;2024-02-16T00:52:05;101245.22;;;10.57;100.00
11395;BME280;5753;54.402;10.220;2024-02-16T00:54:33;101239.91;;;10.62;100.00
11395;BME280;5753;54.402;10.220;2024-02-16T00:56:59;101247.75;;;10.59;100.00
11395;BME280;5753;54.402;10.220;2024-02-16T00:59:30;101242.53;;;10.60;100.00
11395;BME280;5753;54.402;10.220;2024-02-16T01:01:56;101242.44;;;10.63;100.00
11395;BME280;5753;54.402;10.220;2024-02-16T01:04:23;101234.69;;;10.63;100.00
11395;BME280;5753;54.402;10.220;2024-02-16T01:06:50;101229.47;;;10.65;100.00
11395;BME280;5753;54.402;10.220;2024-02-16T01:09:17;101237.31;;;10.62;100.00
11395;BME280;5753;54.402;10.220;2024-02-16T01:11:43;101234.72;;;10.62;100.00
11395;BME280;5753;54.402;10.220;2024-02-16T01:14:09;101237.28;;;10.63;100.00
11395;BME280;5753;54.402;10.220;2024-02-16T01:16:36;101231.31;;;10.61;100.00
11395;BME280;5753;54.402;10.220;2024-02-16T01:19:02;101225.44;;;10.56;100.00
11395;BME280;5753;54.402;10.220;2024-02-16T01:21:29;101235.09;;;10.51;100.00
11395;BME280;5753;54.402;10.220;2024-02-16T01:23:56;101234.16;;;10.54;100.00
11395;BME280;5753;54.402;10.220;2024-02-16T01:26:27;101225.56;;;10.53;99.95
11395;BME280;5753;54.402;10.220;2024-02-16T01:28:54;101230.56;;;10.58;99.92
11395;BME280;5753;54.402;10.220;2024-02-16T01:31:21;101231.41;;;10.58;100.00
11395;BME280;5753;54.402;10.220;2024-02-16T01:33:49;101221.06;;;10.60;100.00
11395;BME280;5753;54.402;10.220;2024-02-16T01:36:16;101224.59;;;10.56;99.71
11395;BME280;5753;54.402;10.220;2024-02-16T01:38:42;101213.56;;;10.52;100.00
11395;BME280;5753;54.402;10.220;2024-02-16T01:41:10;101220.41;;;10.53;99.72
11395;BME280;5753;54.402;10.220;2024-02-16T01:43:37;101211.81;;;10.53;99.78
11395;BME280;5753;54.402;10.220;2024-02-16T01:46:05;101214.44;;;10.51;99.89
11395;BME280;5753;54.402;10.220;2024-02-16T01:48:33;101208.50;;;10.49;99.72
11395;BME280;5753;54.402;10.220;2024-02-16T01:51:01;101205.06;;;10.49;99.73
11395;BME280;5753;54.402;10.220;2024-02-16T01:53:28;101198.09;;;10.51;99.37
11395;BME280;5753;54.402;10.220;2024-02-16T01:55:55;101198.06;;;10.52;99.52
11395;BME280;5753;54.402;10.220;2024-02-16T01:58:22;101193.78;;;10.51;99.61
11395;BME280;5753;54.402;10.220;2024-02-16T02:00:50;101189.41;;;10.53;99.38
11395;BME280;5753;54.402;10.220;2024-02-16T02:03:16;101182.47;;;10.55;99.50
11395;BME280;5753;54.402;10.220;2024-02-16T02:05:45;101178.22;;;10.54;98.92
11395;BME280;5753;54.402;10.220;2024-02-16T02:08:13;101179.13;;;10.52;99.24
11395;BME280;5753;54.402;10.220;2024-02-16T02:10:44;101180.72;;;10.56;98.95
11395;BME280;5753;54.402;10.220;2024-02-16T02:13:12;101182.56;;;10.52;98.58
11395;BME280;5753;54.402;10.220;2024-02-16T02:15:38;101167.81;;;10.56;98.90
11395;BME280;5753;54.402;10.220;2024-02-16T02:18:04;101165.28;;;10.54;98.69
11395;BME280;5753;54.402;10.220;2024-02-16T02:20:31;101158.28;;;10.58;98.59
11395;BME280;5753;54.402;10.220;2024-02-16T02:22:58;101153.13;;;10.58;98.16
11395;BME280;5753;54.402;10.220;2024-02-16T02:25:26;101144.56;;;10.56;98.10
11395;BME280;5753;54.402;10.220;2024-02-16T02:27:54;101143.75;;;10.55;97.99
11395;BME280;5753;54.402;10.220;2024-02-16T02:30:22;101137.91;;;10.50;97.99
11395;BME280;5753;54.402;10.220;2024-02-16T02:32:50;101139.53;;;10.53;97.76
11395;BME280;5753;54.402;10.220;2024-02-16T02:35:17;101130.88;;;10.54;97.51
11395;BME280;5753;54.402;10.220;2024-02-16T02:37:47;101136.78;;;10.57;96.92
11395;BME280;5753;54.402;10.220;2024-02-16T02:40:14;101134.25;;;10.56;96.59
11395;BME280;5753;54.402;10.220;2024-02-16T02:42:41;101137.66;;;10.56;96.88
11395;BME280;5753;54.402;10.220;2024-02-16T02:45:10;101130.03;;;10.53;96.27
11395;BME280;5753;54.402;10.220;2024-02-16T02:47:38;101114.66;;;10.50;96.30
11395;BME280;5753;54.402;10.220;2024-02-16T02:50:06;101120.72;;;10.49;96.19
11395;BME280;5753;54.402;10.220;2024-02-16T02:52:32;101110.28;;;10.52;96.38
11395;BME280;5753;54.402;10.220;2024-02-16T02:55:00;101104.06;;;10.58;95.95
11395;BME280;5753;54.402;10.220;2024-02-16T02:57:26;101104.00;;;10.59;95.85
11395;BME280;5753;54.402;10.220;2024-02-16T03:00:16;101096.34;;;10.56;95.45
11395;BME280;5753;54.402;10.220;2024-02-16T03:02:44;101086.88;;;10.57;95.42
11395;BME280;5753;54.402;10.220;2024-02-16T03:05:11;101078.22;;;10.58;95.23
11395;BME280;5753;54.402;10.220;2024-02-16T03:07:38;101078.41;;;10.53;95.29
11395;BME280;5753;54.402;10.220;2024-02-16T03:10:06;101073.88;;;10.60;95.31
11395;BME280;5753;54.402;10.220;2024-02-16T03:12:37;101081.44;;;10.64;94.95
11395;BME280;5753;54.402;10.220;2024-02-16T03:15:05;101078.78;;;10.66;94.45
11395;BME280;5753;54.402;10.220;2024-02-16T03:17:33;101070.16;;;10.67;94.36
11395;BME280;5753;54.402;10.220;2024-02-16T03:20:01;101076.16;;;10.67;94.15
11395;BME280;5753;54.402;10.220;2024-02-16T03:22:28;101079.75;;;10.63;94.25
11395;BME280;5753;54.402;10.220;2024-02-16T03:24:57;101080.53;;;10.65;93.76
11395;BME280;5753;54.402;10.220;2024-02-16T03:27:24;101083.09;;;10.65;94.15
11395;BME280;5753;54.402;10.220;2024-02-16T03:29:52;101074.47;;;10.66;93.65
11395;BME280;5753;54.402;10.220;2024-02-16T03:32:20;101079.72;;;10.65;93.83
11395;BME280;5753;54.402;10.220;2024-02-16T03:34:49;101073.75;;;10.63;93.78
11395;BME280;5753;54.402;10.220;2024-02-16T03:37:17;101078.06;;;10.62;93.92
11395;BME280;5753;54.402;10.220;2024-02-16T03:39:43;101074.97;;;10.53;94.14
11395;BME280;5753;54.402;10.220;2024-02-16T03:42:11;101079.03;;;10.60;94.26
11395;BME280;5753;54.402;10.220;2024-02-16T03:44:38;101069.47;;;10.62;93.53
11395;BME280;5753;54.402;10.220;2024-02-16T03:47:05;101067.78;;;10.61;93.62
11395;BME280;5753;54.402;10.220;2024-02-16T03:49:35;101065.28;;;10.59;93.60
11395;BME280;5753;54.402;10.220;2024-02-16T03:52:09;101066.13;;;10.60;93.97
11395;BME280;5753;54.402;10.220;2024-02-16T03:54:35;101071.38;;;10.57;93.70
11395;BME280;5753;54.402;10.220;2024-02-16T03:57:03;101067.22;;;10.53;93.64
11395;BME280;5753;54.402;10.220;2024-02-16T03:59:33;101074.03;;;10.55;94.09
11395;BME280;5753;54.402;10.220;2024-02-16T04:02:04;101072.22;;;10.57;93.80
11395;BME280;5753;54.402;10.220;2024-02-16T04:04:32;101077.25;;;10.60;93.81
11395;BME280;5753;54.402;10.220;2024-02-16T04:06:59;101078.41;;;10.53;94.00
11395;BME280;5753;54.402;10.220;2024-02-16T04:09:26;101078.28;;;10.56;93.94
11395;BME280;5753;54.402;10.220;2024-02-16T04:11:52;101074.03;;;10.55;93.73
11395;BME280;5753;54.402;10.220;2024-02-16T04:14:19;101068.06;;;10.53;93.38
11395;BME280;5753;54.402;10.220;2024-02-16T04:16:47;101075.31;;;10.43;94.05
11395;BME280;5753;54.402;10.220;2024-02-16T04:19:13;101066.69;;;10.44;94.09
11395;BME280;5753;54.402;10.220;2024-02-16T04:21:41;101070.09;;;10.45;93.68
11395;BME280;5753;54.402;10.220;2024-02-16T04:24:09;101065.03;;;10.42;93.79
11395;BME280;5753;54.402;10.220;2024-02-16T04:26:35;101055.72;;;10.38;94.05
11395;BME280;5753;54.402;10.220;2024-02-16T04:29:03;101059.09;;;10.40;94.29
11395;BME280;5753;54.402;10.220;2024-02-16T04:31:32;101051.28;;;10.41;93.84
11395;BME280;5753;54.402;10.220;2024-02-16T04:34:00;101045.34;;;10.39;93.74
11395;BME280;5753;54.402;10.220;2024-02-16T04:36:29;101050.50;;;10.39;94.42
11395;BME280;5753;54.402;10.220;2024-02-16T04:38:56;101034.13;;;10.40;94.20
11395;BME280;5753;54.402;10.220;2024-02-16T04:41:22;101044.69;;;10.34;93.78
11395;BME280;5753;54.402;10.220;2024-02-16T04:43:49;101034.34;;;10.34;93.98
11395;BME280;5753;54.402;10.220;2024-02-16T04:46:17;101039.59;;;10.31;94.21
11395;BME280;5753;54.402;10.220;2024-02-16T04:48:44;101047.50;;;10.27;94.31
11395;BME280;5753;54.402;10.220;2024-02-16T04:51:11;101038.16;;;10.24;94.34
11395;BME280;5753;54.402;10.220;2024-02-16T04:53:40;101040.06;;;10.19;94.38
11395;BME280;5753;54.402;10.220;2024-02-16T04:56:08;101039.09;;;10.22;94.82
11395;BME280;5753;54.402;10.220;2024-02-16T04:58:41;101030.59;;;10.20;94.27
11395;BME280;5753;54.402;10.220;2024-02-16T05:01:09;101033.25;;;10.17;94.78
11395;BME280;5753;54.402;10.220;2024-02-16T05:03:37;101036.75;;;10.14;94.88
11395;BME280;5753;54.402;10.220;2024-02-16T05:06:08;101036.75;;;10.16;94.74
11395;BME280;5753;54.402;10.220;2024-02-16T05:08:35;101035.75;;;10.20;94.33
11395;BME280;5753;54.402;10.220;2024-02-16T05:11:03;101033.94;;;10.22;93.98
11395;BME280;5753;54.402;10.220;2024-02-16T05:13:30;101034.22;;;10.13;94.78
11395;BME280;5753;54.402;10.220;2024-02-16T05:15:56;101026.44;;;10.14;94.25
11395;BME280;5753;54.402;10.220;2024-02-16T05:18:23;101021.41;;;10.11;94.52
11395;BME280;5753;54.402;10.220;2024-02-16T05:20:52;101013.84;;;10.07;94.55
11395;BME280;5753;54.402;10.220;2024-02-16T05:23:22;101016.34;;;10.08;94.88
11395;BME280;5753;54.402;10.220;2024-02-16T05:25:50;101011.09;;;10.11;94.65
11395;BME280;5753;54.402;10.220;2024-02-16T05:28:18;101007.88;;;10.04;94.39
11395;BME280;5753;54.402;10.220;2024-02-16T05:30:44;101012.22;;;10.02;94.77
11395;BME280;5753;54.402;10.220;2024-02-16T05:33:12;101012.34;;;9.99;94.39
11395;BME280;5753;54.402;10.220;2024-02-16T05:35:41;101010.66;;;9.98;94.47
11395;BME280;5753;54.402;10.220;2024-02-16T05:38:13;101005.28;;;10.04;94.42
11395;BME280;5753;54.402;10.220;2024-02-16T05:40:59;101017.22;;;10.07;94.51
11395;BME280;5753;54.402;10.220;2024-02-16T05:43:27;101011.50;;;9.99;94.69
11395;BME280;5753;54.402;10.220;2024-02-16T05:45:54;101016.66;;;9.99;94.36
11395;BME280;5753;54.402;10.220;2024-02-16T05:48:25;101009.78;;;9.99;94.59
11395;BME280;5753;54.402;10.220;2024-02-16T05:51:04;101001.31;;;9.96;94.54
11395;BME280;5753;54.402;10.220;2024-02-16T05:53:34;100996.03;;;9.99;94.08
11395;BME280;5753;54.402;10.220;2024-02-16T05:56:01;101000.34;;;9.98;94.41
11395;BME280;5753;54.402;10.220;2024-02-16T05:58:29;100996.91;;;9.98;93.96
11395;BME280;5753;54.402;10.220;2024-02-16T06:00:57;101002.91;;;9.98;94.42
11395;BME280;5753;54.402;10.220;2024-02-16T06:03:25;101009.78;;;9.99;93.79
11395;BME280;5753;54.402;10.220;2024-02-16T06:05:53;101001.09;;;10.02;93.78
11395;BME280;5753;54.402;10.220;2024-02-16T06:08:21;100995.09;;;10.01;93.63
11395;BME280;5753;54.402;10.220;2024-02-16T06:10:47;100999.63;;;9.95;93.78
11395;BME280;5753;54.402;10.220;2024-02-16T06:13:21;101003.03;;;9.95;93.93
11395;BME280;5753;54.402;10.220;2024-02-16T06:15:49;100998.97;;;9.88;94.00
11395;BME280;5753;54.402;10.220;2024-02-16T06:18:15;100998.09;;;9.89;94.07
11395;BME280;5753;54.402;10.220;2024-02-16T06:20:43;100993.94;;;9.85;93.98
11395;BME280;5753;54.402;10.220;2024-02-16T06:23:13;100990.63;;;9.82;94.16
11395;BME280;5753;54.402;10.220;2024-02-16T06:25:40;100995.00;;;9.80;94.60
11395;BME280;5753;54.402;10.220;2024-02-16T06:28:08;100998.28;;;9.83;94.01
11395;BME280;5753;54.402;10.220;2024-02-16T06:30:35;101012.19;;;9.79;94.26
11395;BME280;5753;54.402;10.220;2024-02-16T06:33:03;101007.13;;;9.78;94.00
11395;BME280;5753;54.402;10.220;2024-02-16T06:35:30;100995.88;;;9.79;94.31
11395;BME280;5753;54.402;10.220;2024-02-16T06:37:58;101000.03;;;9.83;94.29
11395;BME280;5753;54.402;10.220;2024-02-16T06:40:27;101005.50;;;9.74;94.33
11395;BME280;5753;54.402;10.220;2024-02-16T06:42:54;101004.56;;;9.76;94.16
11395;BME280;5753;54.402;10.220;2024-02-16T06:45:26;101011.31;;;9.80;94.29
11395;BME280;5753;54.402;10.220;2024-02-16T06:47:54;101008.56;;;9.85;94.30
11395;BME280;5753;54.402;10.220;2024-02-16T06:50:43;101000.03;;;9.83;93.92
11395;BME280;5753;54.402;10.220;2024-02-16T06:53:14;100996.47;;;9.87;93.61
11395;BME280;5753;54.402;10.220;2024-02-16T06:55:41;100999.63;;;9.95;93.41
11395;BME280;5753;54.402;10.220;2024-02-16T06:58:10;101008.41;;;9.89;93.14
11395;BME280;5753;54.402;10.220;2024-02-16T07:00:38;101003.81;;;9.97;92.85
11395;BME280;5753;54.402;10.220;2024-02-16T07:03:07;101003.19;;;9.91;93.29
11395;BME280;5753;54.402;10.220;2024-02-16T07:05:35;100995.47;;;9.91;93.38
11395;BME280;5753;54.402;10.220;2024-02-16T07:08:01;100984.97;;;9.95;92.71
11395;BME280;5753;54.402;10.220;2024-02-16T07:10:31;100983.34;;;9.93;92.87
11395;BME280;5753;54.402;10.220;2024-02-16T07:12:57;100986.16;;;9.87;93.37
11395;BME280;5753;54.402;10.220;2024-02-16T07:15:25;100993.81;;;9.88;93.17
11395;BME280;5753;54.402;10.220;2024-02-16T07:17:57;100984.31;;;9.90;92.91
11395;BME280;5753;54.402;10.220;2024-02-16T07:20:23;100984.00;;;9.98;92.53
11395;BME280;5753;54.402;10.220;2024-02-16T07:22:50;100984.69;;;10.03;92.64
11395;BME280;5753;54.402;10.220;2024-02-16T07:25:19;100978.53;;;10.07;91.85
11395;BME280;5753;54.402;10.220;2024-02-16T07:27:45;100981.78;;;10.12;91.86
11395;BME280;5753;54.402;10.220;2024-02-16T07:30:13;100990.38;;;10.13;91.88
11395;BME280;5753;54.402;10.220;2024-02-16T07:32:40;100984.91;;;10.22;91.41
11395;BME280;5753;54.402;10.220;2024-02-16T07:35:07;100972.66;;;10.27;91.35
11395;BME280;5753;54.402;10.220;2024-02-16T07:37:38;100972.38;;;10.36;90.64
11395;BME280;5753;54.402;10.220;2024-02-16T07:40:05;100975.44;;;10.45;89.66
11395;BME280;5753;54.402;10.220;2024-02-16T07:42:39;100982.03;;;10.53;89.57
11395;BME280;5753;54.402;10.220;2024-02-16T07:45:14;100979.94;;;10.62;88.75
11395;BME280;5753;54.402;10.220;2024-02-16T07:47:47;100975.41;;;10.69;88.36
11395;BME280;5753;54.402;10.220;2024-02-16T07:50:36;100982.72;;;10.79;87.63
11395;BME280;5753;54.402;10.220;2024-02-16T07:56:24;100979.97;;;10.84;87.31
11395;BME280;5753;54.402;10.220;2024-02-16T07:59:24;100989.00;;;10.94;86.18
11395;BME280;5753;54.402;10.220;2024-02-16T08:28:39;100966.72;;;11.13;83.92
11395;BME280;5753;54.402;10.220;2024-02-16T08:31:14;100962.97;;;11.20;83.21
11395;BME280;5753;54.402;10.220;2024-02-16T08:33:44;100969.69;;;11.24;82.49
11395;BME280;5753;54.402;10.220;2024-02-16T08:36:12;100968.59;;;11.30;82.99
11395;BME280;5753;54.402;10.220;2024-02-16T08:38:44;100960.66;;;11.34;82.83
11395;BME280;5753;54.402;10.220;2024-02-16T08:41:12;100957.69;;;11.44;82.79
11395;BME280;5753;54.402;10.220;2024-02-16T08:43:40;100961.47;;;11.57;82.00
11395;BME280;5753;54.402;10.220;2024-02-16T08:46:07;100964.41;;;11.68;80.82
11395;BME280;5753;54.402;10.220;2024-02-16T08:48:35;100958.28;;;11.70;81.34
11395;BME280;5753;54.402;10.220;2024-02-16T08:51:29;100953.94;;;11.71;81.02
11395;BME280;5753;54.402;10.220;2024-02-16T08:54:01;100945.22;;;11.73;81.05
11395;BME280;5753;54.402;10.220;2024-02-16T08:56:36;100950.19;;;11.78;80.49
11395;BME280;5753;54.402;10.220;2024-02-16T08:59:18;100952.38;;;11.87;79.80
11395;BME280;5753;54.402;10.220;2024-02-16T09:02:04;100946.75;;;11.98;79.51
11395;BME280;5753;54.402;10.220;2024-02-16T09:04:33;100952.69;;;12.00;79.38
11395;BME280;5753;54.402;10.220;2024-02-16T09:07:01;100956.88;;;12.02;78.79
11395;BME280;5753;54.402;10.220;2024-02-16T09:09:30;100957.53;;;12.07;78.67
11395;BME280;5753;54.402;10.220;2024-02-16T09:11:58;100960.06;;;12.09;79.11
11395;BME280;5753;54.402;10.220;2024-02-16T09:14:25;100956.13;;;12.00;78.39
11395;BME280;5753;54.402;10.220;2024-02-16T09:16:54;100946.47;;;12.04;78.05
11395;BME280;5753;54.402;10.220;2024-02-16T09:19:21;100939.97;;;12.14;79.00
11395;BME280;5753;54.402;10.220;2024-02-16T09:21:49;100935.97;;;12.26;78.49
11395;BME280;5753;54.402;10.220;2024-02-16T09:24:18;100934.16;;;12.28;77.57
11395;BME280;5753;54.402;10.220;2024-02-16T09:26:51;100929.00;;;12.28;77.26
11395;BME280;5753;54.402;10.220;2024-02-16T09:29:19;100928.00;;;12.30;77.07
11395;BME280;5753;54.402;10.220;2024-02-16T09:31:49;100928.09;;;12.29;77.31
11395;BME280;5753;54.402;10.220;2024-02-16T09:34:36;100929.00;;;12.28;77.38
11395;BME280;5753;54.402;10.220;2024-02-16T09:37:04;100924.44;;;12.33;77.03
11395;BME280;5753;54.402;10.220;2024-02-16T09:39:32;100933.59;;;12.40;75.85
11395;BME280;5753;54.402;10.220;2024-02-16T09:41:59;100947.03;;;12.48;75.58
11395;BME280;5753;54.402;10.220;2024-02-16T09:44:29;100942.63;;;12.50;76.12
11395;BME280;5753;54.402;10.220;2024-02-16T09:46:57;100945.56;;;12.42;75.80
11395;BME280;5753;54.402;10.220;2024-02-16T09:49:29;100950.13;;;12.37;75.88
11395;BME280;5753;54.402;10.220;2024-02-16T09:52:00;100949.44;;;12.34;75.26
11395;BME280;5753;54.402;10.220;2024-02-16T09:54:34;100948.22;;;12.22;75.86
11395;BME280;5753;54.402;10.220;2024-02-16T09:57:05;100946.28;;;12.08;77.87
11395;BME280;5753;54.402;10.220;2024-02-16T09:59:31;100950.81;;;12.03;77.49
11395;BME280;5753;54.402;10.220;2024-02-16T10:02:03;100954.84;;;11.90;78.07
11395;BME280;5753;54.402;10.220;2024-02-16T10:04:31;100949.78;;;11.87;78.77
11395;BME280;5753;54.402;10.220;2024-02-16T10:06:59;100950.38;;;11.94;79.40
11395;BME280;5753;54.402;10.220;2024-02-16T10:09:28;100955.84;;;12.06;78.51
11395;BME280;5753;54.402;10.220;2024-02-16T10:11:55;100949.22;;;12.19;77.92
11395;BME280;5753;54.402;10.220;2024-02-16T10:14:24;100950.44;;;12.30;78.01
11395;BME280;5753;54.402;10.220;2024-02-16T10:17:05;100949.63;;;12.48;76.78
11395;BME280;5753;54.402;10.220;2024-02-16T10:19:33;100957.66;;;12.60;76.47
11395;BME280;5753;54.402;10.220;2024-02-16T10:22:17;100956.69;;;12.63;76.11
11395;BME280;5753;54.402;10.220;2024-02-16T10:24:43;100952.81;;;12.72;75.61
11395;BME280;5753;54.402;10.220;2024-02-16T10:27:17;100950.03;;;12.93;75.06
11395;BME280;5753;54.402;10.220;2024-02-16T10:29:47;100962.06;;;13.13;74.35
11395;BME280;5753;54.402;10.220;2024-02-16T10:32:18;100955.56;;;13.22;73.61
11395;BME280;5753;54.402;10.220;2024-02-16T10:34:48;100961.09;;;13.16;72.94
11395;BME280;5753;54.402;10.220;2024-02-16T10:37:18;100974.31;;;13.10;73.11
11395;BME280;5753;54.402;10.220;2024-02-16T10:39:47;100969.94;;;13.12;73.52
11395;BME280;5753;54.402;10.220;2024-02-16T10:42:17;100978.50;;;13.12;73.06
11395;BME280;5753;54.402;10.220;2024-02-16T10:44:47;100974.72;;;13.19;72.92
11395;BME280;5753;54.402;10.220;2024-02-16T10:47:15;100968.09;;;13.14;73.35
11395;BME280;5753;54.402;10.220;2024-02-16T10:49:44;100980.19;;;13.13;72.94
11395;BME280;5753;54.402;10.220;2024-02-16T10:52:19;100971.88;;;13.06;72.59
11395;BME280;5753;54.402;10.220;2024-02-16T10:54:47;100972.00;;;13.03;72.96
11395;BME280;5753;54.402;10.220;2024-02-16T10:57:16;100981.66;;;12.83;74.15
11395;BME280;5753;54.402;10.220;2024-02-16T10:59:46;100973.28;;;12.78;74.93
11395;BME280;5753;54.402;10.220;2024-02-16T11:02:14;100969.53;;;12.83;74.53
11395;BME280;5753;54.402;10.220;2024-02-16T11:04:41;100970.84;;;12.92;74.71
11395;BME280;5753;54.402;10.220;2024-02-16T11:07:16;100974.19;;;12.94;74.06
11395;BME280;5753;54.402;10.220;2024-02-16T11:09:45;100970.25;;;12.87;74.22
11395;BME280;5753;54.402;10.220;2024-02-16T11:12:16;100968.78;;;12.81;74.62
11395;BME280;5753;54.402;10.220;2024-02-16T11:14:46;100973.28;;;12.78;74.75
11395;BME280;5753;54.402;10.220;2024-02-16T11:17:22;100965.88;;;12.51;76.31
11395;BME280;5753;54.402;10.220;2024-02-16T11:19:53;100958.16;;;12.31;78.11
11395;BME280;5753;54.402;10.220;2024-02-16T11:22:20;100955.63;;;12.30;78.80
11395;BME280;5753;54.402;10.220;2024-02-16T11:24:54;100955.09;;;12.42;77.80
11395;BME280;5753;54.402;10.220;2024-02-16T11:27:22;100961.78;;;12.64;77.38
11395;BME280;5753;54.402;10.220;2024-02-16T11:29:48;100970.69;;;12.78;76.43
11395;BME280;5753;54.402;10.220;2024-02-16T11:32:15;100963.69;;;12.97;74.90
11395;BME280;5753;54.402;10.220;2024-02-16T11:34:44;100954.38;;;13.12;74.33
11395;BME280;5753;54.402;10.220;2024-02-16T11:37:13;100948.03;;;13.17;74.28
11395;BME280;5753;54.402;10.220;2024-02-16T11:39:42;100947.03;;;13.20;73.93
11395;BME280;5753;54.402;10.220;2024-02-16T11:42:19;100949.94;;;13.31;73.82
11395;BME280;5753;54.402;10.220;2024-02-16T11:44:54;100948.28;;;13.30;72.78
11395;BME280;5753;54.402;10.220;2024-02-16T11:47:23;100950.69;;;13.33;72.74
11395;BME280;5753;54.402;10.220;2024-02-16T11:50:24;100953.66;;;13.42;72.58
11395;BME280;5753;54.402;10.220;2024-02-16T11:52:53;100950.94;;;13.45;72.45
11395;BME280;5753;54.402;10.220;2024-02-16T11:55:23;100950.56;;;13.36;71.87
11395;BME280;5753;54.402;10.220;2024-02-16T11:57:52;100950.09;;;13.28;72.22
11395;BME280;5753;54.402;10.220;2024-02-16T12:00:40;100954.19;;;13.32;72.19
11395;BME280;5753;54.402;10.220;2024-02-16T12:03:08;100963.66;;;13.33;71.94
11395;BME280;5753;54.402;10.220;2024-02-16T12:05:36;100956.56;;;13.36;71.52
11395;BME280;5753;54.402;10.220;2024-02-16T12:08:06;100962.91;;;13.31;71.25
11395;BME280;5753;54.402;10.220;2024-02-16T12:10:33;100974.50;;;13.24;71.65
11395;BME280;5753;54.402;10.220;2024-02-16T12:13:01;100960.16;;;13.34;71.20
11395;BME280;5753;54.402;10.220;2024-02-16T12:15:34;100960.31;;;13.48;70.88
11395;BME280;5753;54.402;10.220;2024-02-16T12:18:02;100959.47;;;13.65;70.03
11395;BME280;5753;54.402;10.220;2024-02-16T12:20:30;100950.38;;;13.73;69.71
11395;BME280;5753;54.402;10.220;2024-02-16T12:23:12;100948.63;;;13.74;69.63
11395;BME280;5753;54.402;10.220;2024-02-16T12:25:41;100940.66;;;13.77;69.58
11395;BME280;5753;54.402;10.220;2024-02-16T12:28:07;100935.47;;;13.77;69.78
11395;BME280;5753;54.402;10.220;2024-02-16T12:30:35;100932.56;;;13.66;70.83
11395;BME280;5753;54.402;10.220;2024-02-16T12:33:03;100930.22;;;13.61;70.38
11395;BME280;5753;54.402;10.220;2024-02-16T12:35:30;100933.75;;;13.60;70.40
11395;BME280;5753;54.402;10.220;2024-02-16T12:37:59;100931.91;;;13.62;70.30
11395;BME280;5753;54.402;10.220;2024-02-16T12:40:27;100937.03;;;13.64;70.44
11395;BME280;5753;54.402;10.220;2024-02-16T12:42:53;100935.81;;;13.54;70.51
11395;BME280;5753;54.402;10.220;2024-02-16T12:45:21;100956.34;;;13.41;70.64
11395;BME280;5753;54.402;10.220;2024-02-16T12:47:47;100950.22;;;13.42;71.14
11395;BME280;5753;54.402;10.220;2024-02-16T12:50:15;100951.00;;;13.44;71.61
11395;BME280;5753;54.402;10.220;2024-02-16T12:52:41;100945.28;;;13.55;71.21
11395;BME280;5753;54.402;10.220;2024-02-16T12:55:09;100945.47;;;13.67;71.04
11395;BME280;5753;54.402;10.220;2024-02-16T12:57:36;100946.94;;;13.73;70.63
11395;BME280;5753;54.402;10.220;2024-02-16T13:00:06;100942.88;;;13.84;70.45
11395;BME280;5753;54.402;10.220;2024-02-16T13:02:32;100964.56;;;13.66;70.53
11395;BME280;5753;54.402;10.220;2024-02-16T13:04:59;100952.44;;;13.67;70.85
11395;BME280;5753;54.402;10.220;2024-02-16T13:07:26;100962.91;;;13.48;70.54
11395;BME280;5753;54.402;10.220;2024-02-16T13:09:52;100951.09;;;13.25;71.52
11395;BME280;5753;54.402;10.220;2024-02-16T13:12:22;100954.03;;;13.52;71.24
11395;BME280;5753;54.402;10.220;2024-02-16T13:14:51;100943.78;;;13.66;71.27
11395;BME280;5753;54.402;10.220;2024-02-16T13:17:20;100953.63;;;13.77;70.99
11395;BME280;5753;54.402;10.220;2024-02-16T13:19:49;100953.47;;;13.80;70.44
11395;BME280;5753;54.402;10.220;2024-02-16T13:22:15;100961.28;;;13.63;70.86
11395;BME280;5753;54.402;10.220;2024-02-16T13:24:45;100953.44;;;13.47;71.55
11395;BME280;5753;54.402;10.220;2024-02-16T13:27:11;100966.81;;;13.39;71.73
11395;BME280;5753;54.402;10.220;2024-02-16T13:29:39;100948.41;;;13.44;71.86